Time;durP1;ratioP1;P1;durP2;ratioP2;P2;SDS_P1;SDS_P2;PMS_P1;PMS_P2;Temp;Humidity;BMP_temperature;BMP_pressure;BME280_temperature;BME280_humidity;BME280_pressure;Samples;Min_cycle;Max_cycle;Signal;HPM_P1;HPM_P2
2022/12/19 00:01:15;;;;;;;26.35;8.95;;;1.70;93.00;;;;;;5136480;28;20494;-74
2022/12/19 00:03:43;;;;;;;26.55;11.70;;;1.70;93.40;;;;;;5136605;28;20016;-74
2022/12/19 00:06:09;;;;;;;25.42;10.70;;;1.70;93.10;;;;;;5136348;28;20020;-74
2022/12/19 00:08:35;;;;;;;17.63;6.80;;;1.70;93.00;;;;;;5135983;28;20071;-74
2022/12/19 00:11:02;;;;;;;28.42;10.60;;;1.70;93.20;;;;;;5136289;28;20077;-75
2022/12/19 00:13:30;;;;;;;34.65;10.50;;;1.80;93.20;;;;;;5136250;28;20016;-75
2022/12/19 00:16:03;;;;;;;27.48;10.95;;;1.80;93.40;;;;;;5136189;28;20020;-75
2022/12/19 00:18:29;;;;;;;34.15;12.27;;;1.80;93.50;;;;;;5134606;28;20043;-75
2022/12/19 00:21:00;;;;;;;18.23;8.52;;;1.80;94.10;;;;;;5136054;28;20058;-74
2022/12/19 00:23:28;;;;;;;26.83;10.55;;;1.80;93.70;;;;;;5136065;28;20027;-75
2022/12/19 00:25:53;;;;;;;22.02;10.38;;;1.80;93.80;;;;;;5135985;28;20019;-74
2022/12/19 00:28:19;;;;;;;18.08;6.68;;;1.80;94.00;;;;;;5135055;28;20028;-74
2022/12/19 00:30:45;;;;;;;25.42;10.60;;;1.80;94.00;;;;;;5135859;28;20043;-74
2022/12/19 00:33:10;;;;;;;20.85;8.90;;;1.90;94.00;;;;;;5135853;28;20026;-74
2022/12/19 00:35:36;;;;;;;19.15;8.55;;;1.90;94.10;;;;;;5134754;28;20085;-74
2022/12/19 00:38:02;;;;;;;32.97;12.77;;;1.90;94.30;;;;;;5134826;28;20036;-74
2022/12/19 00:40:28;;;;;;;21.70;10.32;;;1.80;94.30;;;;;;5134733;28;20028;-74
2022/12/19 00:42:53;;;;;;;21.02;10.05;;;1.90;94.40;;;;;;5135646;28;20622;-75
2022/12/19 00:45:19;;;;;;;22.42;9.75;;;1.90;94.40;;;;;;5134554;28;20046;-74
2022/12/19 00:47:45;;;;;;;24.20;10.20;;;1.90;94.60;;;;;;5117499;28;20027;-74
2022/12/19 00:50:10;;;;;;;32.70;12.35;;;1.90;94.60;;;;;;5135474;28;20093;-74
2022/12/19 00:52:36;;;;;;;14.90;7.53;;;1.90;95.00;;;;;;5135413;28;20076;-74
2022/12/19 00:55:02;;;;;;;23.95;8.85;;;1.90;94.70;;;;;;5135387;28;20038;-74
2022/12/19 00:57:27;;;;;;;19.58;8.43;;;1.90;94.80;;;;;;5135513;27;20028;-74
2022/12/19 00:59:53;;;;;;;32.15;11.57;;;2.00;94.80;;;;;;5117217;28;20030;-74
2022/12/19 01:02:18;;;;;;;18.98;6.63;;;1.90;94.90;;;;;;5134354;28;20105;-74
2022/12/19 01:04:44;;;;;;;35.17;8.73;;;2.00;95.00;;;;;;5134237;28;20024;-74
2022/12/19 01:07:10;;;;;;;32.00;11.15;;;2.00;95.10;;;;;;5135091;28;20028;-74
2022/12/19 01:09:36;;;;;;;22.73;8.32;;;2.00;95.40;;;;;;5134887;28;20039;-74
2022/12/19 01:14:47;;;;;;;25.70;10.95;;;2.00;95.40;;;;;;5135286;28;20034;-74
2022/12/19 01:17:13;;;;;;;23.30;9.60;;;2.10;95.30;;;;;;5134037;28;20055;-74
2022/12/19 01:19:38;;;;;;;17.15;7.55;;;2.20;95.90;;;;;;5135045;28;20083;-74
2022/12/19 01:22:04;;;;;;;30.02;11.38;;;2.20;95.60;;;;;;5135017;28;20028;-74
2022/12/19 01:24:30;;;;;;;29.95;12.80;;;2.20;95.80;;;;;;5134778;28;20115;-75
2022/12/19 01:26:55;;;;;;;26.15;11.27;;;2.30;95.40;;;;;;5134681;28;20031;-75
2022/12/19 01:29:21;;;;;;;29.52;11.85;;;2.30;95.40;;;;;;5132888;28;20044;-75
2022/12/19 01:31:46;;;;;;;26.25;10.63;;;2.30;95.40;;;;;;5134673;28;20049;-75
2022/12/19 01:34:12;;;;;;;31.92;12.18;;;2.30;95.20;;;;;;5133717;28;20024;-75
2022/12/19 01:36:38;;;;;;;29.60;11.20;;;2.40;95.20;;;;;;5133582;28;20037;-75
2022/12/19 01:39:04;;;;;;;9.52;4.75;;;2.40;95.20;;;;;;5133553;28;20490;-75
2022/12/19 01:41:29;;;;;;;34.13;11.50;;;2.40;95.10;;;;;;5134539;28;20028;-75
2022/12/19 01:43:59;;;;;;;26.45;9.48;;;2.40;95.50;;;;;;5134462;28;20079;-75
2022/12/19 01:46:31;;;;;;;14.00;6.82;;;2.40;95.10;;;;;;5134462;28;20028;-75
2022/12/19 01:48:59;;;;;;;28.92;10.20;;;2.50;95.40;;;;;;5134393;28;20463;-75
2022/12/19 01:51:48;;;;;;;15.40;8.07;;;2.50;95.00;;;;;;5134357;28;20095;-75
2022/12/19 01:54:24;;;;;;;16.30;7.18;;;2.50;95.00;;;;;;5132548;28;20054;-75
2022/12/19 01:56:52;;;;;;;21.65;9.05;;;2.50;95.10;;;;;;5134317;28;20020;-75
2022/12/19 01:59:38;;;;;;;15.75;6.75;;;2.50;95.10;;;;;;5134228;28;20024;-75
2022/12/19 02:02:20;;;;;;;16.98;7.90;;;2.50;95.10;;;;;;5134230;28;20024;-75
2022/12/19 02:04:46;;;;;;;18.60;7.47;;;2.50;95.10;;;;;;5133193;28;20370;-75
2022/12/19 02:07:14;;;;;;;16.88;6.95;;;2.50;95.20;;;;;;5134077;28;20084;-75
2022/12/19 02:09:41;;;;;;;22.75;10.48;;;2.60;95.30;;;;;;5133913;28;20095;-75
2022/12/19 02:12:06;;;;;;;20.60;9.32;;;2.60;95.30;;;;;;5133028;28;20092;-75
2022/12/19 02:14:33;;;;;;;31.52;10.93;;;2.60;95.20;;;;;;5134044;28;20020;-75
2022/12/19 02:17:17;;;;;;;18.45;7.95;;;2.70;95.10;;;;;;5134162;28;20020;-75
2022/12/19 02:19:49;;;;;;;26.38;11.82;;;2.70;95.10;;;;;;5134076;28;20027;-75
2022/12/19 02:22:40;;;;;;;17.38;7.70;;;2.70;95.10;;;;;;5133956;28;20027;-75
2022/12/19 02:25:39;;;;;;;23.95;9.63;;;2.70;95.10;;;;;;5133915;28;20027;-75
2022/12/19 02:28:53;;;;;;;26.38;10.02;;;2.80;95.20;;;;;;5133965;28;20039;-75
2022/12/19 02:31:26;;;;;;;20.77;10.77;;;2.80;95.20;;;;;;5125492;28;20032;-74
2022/12/19 02:34:15;;;;;;;19.42;6.72;;;2.80;95.20;;;;;;5134013;28;20028;-75
2022/12/19 02:36:49;;;;;;;22.48;9.30;;;2.80;95.50;;;;;;5134045;28;20039;-75
2022/12/19 02:39:37;;;;;;;17.27;6.90;;;2.80;95.60;;;;;;5133868;28;20079;-75
2022/12/19 02:42:06;;;;;;;21.80;9.55;;;2.90;95.60;;;;;;5137368;28;20043;-75
2022/12/19 02:44:47;;;;;;;29.80;11.68;;;2.90;95.70;;;;;;5137951;28;20019;-75
2022/12/19 02:47:14;;;;;;;24.90;10.38;;;2.90;95.70;;;;;;5136899;28;20031;-75
2022/12/19 02:49:39;;;;;;;16.75;6.60;;;2.90;95.80;;;;;;5137898;28;20043;-75
2022/12/19 02:52:09;;;;;;;29.55;10.70;;;2.90;95.80;;;;;;5137819;28;20019;-75
2022/12/19 02:54:35;;;;;;;30.98;11.02;;;3.00;95.70;;;;;;5136780;28;20027;-75
2022/12/19 02:57:17;;;;;;;23.55;8.85;;;3.00;95.60;;;;;;5119809;28;20028;-75
2022/12/19 02:59:55;;;;;;;20.53;9.73;;;3.00;95.50;;;;;;5137751;28;20043;-75
2022/12/19 03:02:42;;;;;;;27.90;11.40;;;3.10;95.40;;;;;;5137753;28;20028;-75
2022/12/19 03:05:26;;;;;;;18.52;8.95;;;3.10;95.40;;;;;;5136508;28;20023;-74
2022/12/19 03:07:55;;;;;;;27.67;8.95;;;3.10;95.40;;;;;;5137193;28;20083;-75
2022/12/19 03:10:23;;;;;;;28.45;11.05;;;3.10;95.40;;;;;;5137427;28;20386;-75
2022/12/19 03:12:56;;;;;;;27.75;7.78;;;3.10;95.30;;;;;;5137402;28;20028;-75
2022/12/19 03:15:23;;;;;;;13.13;6.55;;;3.20;95.20;;;;;;5137407;28;20020;-75
2022/12/19 03:17:49;;;;;;;10.43;5.70;;;3.20;95.30;;;;;;5137342;28;20077;-75
2022/12/19 03:20:35;;;;;;;23.65;11.32;;;3.20;95.40;;;;;;5137266;28;20027;-75
2022/12/19 03:23:01;;;;;;;24.58;10.80;;;3.20;95.40;;;;;;5105665;27;20040;-75
2022/12/19 03:25:29;;;;;;;18.77;8.75;;;3.20;95.60;;;;;;5137163;28;20034;-75
2022/12/19 03:27:59;;;;;;;12.32;5.93;;;3.20;95.70;;;;;;5137058;28;20051;-75
2022/12/19 03:30:25;;;;;;;29.92;11.05;;;3.30;95.70;;;;;;5137103;28;20030;-75
2022/12/19 03:32:51;;;;;;;27.98;11.75;;;3.30;95.70;;;;;;5137123;28;20091;-75
2022/12/19 03:35:24;;;;;;;24.00;10.50;;;3.30;95.90;;;;;;5135941;28;20015;-75
2022/12/19 03:37:54;;;;;;;26.15;10.13;;;3.30;95.90;;;;;;5136060;28;20091;-75
2022/12/19 03:40:23;;;;;;;22.95;9.93;;;3.30;95.80;;;;;;5136909;28;20050;-75
2022/12/19 03:43:09;;;;;;;19.23;7.88;;;3.30;96.30;;;;;;5136852;28;20107;-75
2022/12/19 03:45:56;;;;;;;14.55;7.03;;;3.30;96.20;;;;;;5136872;28;20047;-75
2022/12/19 03:48:34;;;;;;;18.02;6.28;;;3.40;96.30;;;;;;5136756;28;20414;-75
2022/12/19 03:51:15;;;;;;;21.88;9.38;;;3.40;96.50;;;;;;5136736;28;20023;-75
2022/12/19 03:54:13;;;;;;;23.75;9.35;;;3.40;96.60;;;;;;5136464;28;20051;-75
2022/12/19 03:56:52;;;;;;;11.43;5.05;;;3.50;96.80;;;;;;5136740;28;20020;-75
2022/12/19 03:59:32;;;;;;;22.38;9.98;;;3.50;97.00;;;;;;5135538;28;20016;-75
2022/12/19 04:02:00;;;;;;;22.23;8.90;;;3.60;97.10;;;;;;5136633;28;20079;-75
2022/12/19 04:04:26;;;;;;;27.23;10.50;;;3.60;97.40;;;;;;5136412;28;20020;-75
2022/12/19 04:06:52;;;;;;;20.05;6.75;;;3.60;97.40;;;;;;5136339;28;20016;-75
2022/12/19 04:09:21;;;;;;;12.85;4.82;;;3.70;97.40;;;;;;5136137;27;20051;-75
2022/12/19 04:11:52;;;;;;;13.32;7.05;;;3.80;97.40;;;;;;5136309;28;20041;-75
2022/12/19 04:14:27;;;;;;;20.10;8.43;;;3.80;97.40;;;;;;5136276;28;20019;-75
2022/12/19 04:17:04;;;;;;;13.98;6.53;;;3.90;97.40;;;;;;5135234;28;20029;-75
2022/12/19 04:19:52;;;;;;;24.73;9.35;;;3.90;97.60;;;;;;5135003;28;20061;-75
2022/12/19 04:22:40;;;;;;;22.23;9.13;;;3.90;97.70;;;;;;5123192;28;20031;-75
2022/12/19 04:25:10;;;;;;;15.18;7.93;;;4.00;97.60;;;;;;5136093;28;20036;-75
2022/12/19 04:27:38;;;;;;;19.95;7.88;;;4.00;97.50;;;;;;5135990;28;20015;-75
2022/12/19 04:30:08;;;;;;;25.30;11.02;;;4.00;97.50;;;;;;5135911;28;20104;-75
2022/12/19 04:32:35;;;;;;;12.13;6.13;;;4.00;97.50;;;;;;5135891;27;20027;-75
2022/12/19 04:35:01;;;;;;;23.35;10.43;;;4.00;97.90;;;;;;5135058;28;20030;-75
2022/12/19 04:37:28;;;;;;;19.60;7.68;;;4.10;98.20;;;;;;5134722;28;20487;-75
2022/12/19 04:39:53;;;;;;;12.38;6.15;;;4.10;98.10;;;;;;5134759;28;20031;-75
2022/12/19 04:42:19;;;;;;;23.55;9.57;;;4.20;98.00;;;;;;5134649;28;20024;-75
2022/12/19 04:44:45;;;;;;;16.73;6.45;;;4.20;98.20;;;;;;5135640;28;20035;-75
2022/12/19 04:47:10;;;;;;;17.27;8.65;;;4.20;98.40;;;;;;5117501;28;20042;-75
2022/12/19 04:49:36;;;;;;;15.43;7.53;;;4.30;98.70;;;;;;5117556;28;20050;-75
2022/12/19 04:52:02;;;;;;;20.17;8.13;;;4.30;98.70;;;;;;5135472;28;20059;-75
2022/12/19 04:54:27;;;;;;;11.18;5.25;;;4.40;98.90;;;;;;5134549;28;20023;-74
2022/12/19 04:56:53;;;;;;;10.05;5.15;;;4.50;98.90;;;;;;5134327;28;20035;-75
2022/12/19 04:59:18;;;;;;;12.50;6.53;;;4.60;99.10;;;;;;5135325;28;20031;-75
2022/12/19 05:01:44;;;;;;;13.15;4.63;;;4.60;99.10;;;;;;5134277;28;20024;-75
2022/12/19 05:04:10;;;;;;;9.98;4.28;;;4.70;99.50;;;;;;5135225;28;20035;-74
2022/12/19 05:06:36;;;;;;;11.80;6.00;;;4.70;99.60;;;;;;5135167;28;20087;-75
2022/12/19 05:09:02;;;;;;;12.70;5.82;;;4.70;99.20;;;;;;5133604;28;20044;-74
2022/12/19 05:11:28;;;;;;;21.52;8.55;;;4.70;99.20;;;;;;5135110;28;20028;-75
2022/12/19 05:13:53;;;;;;;22.70;8.55;;;4.80;99.00;;;;;;5133990;28;20109;-75
2022/12/19 05:16:19;;;;;;;20.17;8.70;;;4.80;99.10;;;;;;5134976;28;20062;-75
2022/12/19 05:18:45;;;;;;;16.65;5.72;;;4.80;99.20;;;;;;5134928;28;20046;-75
2022/12/19 05:21:11;;;;;;;16.02;7.22;;;4.80;99.30;;;;;;5133981;28;20032;-75
2022/12/19 05:23:37;;;;;;;19.25;6.38;;;4.90;99.50;;;;;;5134889;28;20024;-75
2022/12/19 05:26:04;;;;;;;22.13;9.40;;;4.90;99.50;;;;;;5134841;28;20029;-74
2022/12/19 05:28:31;;;;;;;12.88;5.72;;;5.00;99.70;;;;;;5133699;28;20046;-75
2022/12/19 05:31:11;;;;;;;17.00;7.18;;;5.00;99.60;;;;;;5134740;28;20028;-75
2022/12/19 05:33:38;;;;;;;12.73;6.03;;;5.00;99.80;;;;;;5133664;28;20026;-75
2022/12/19 05:36:04;;;;;;;16.45;6.47;;;5.10;99.90;;;;;;5134705;28;20020;-75
2022/12/19 05:38:30;;;;;;;17.95;7.80;;;5.10;99.90;;;;;;5134540;28;20037;-75
2022/12/19 05:40:56;;;;;;;19.15;8.20;;;5.20;99.90;;;;;;5134551;28;20028;-74
2022/12/19 05:43:22;;;;;;;20.33;7.35;;;5.20;99.90;;;;;;5133604;28;20038;-75
2022/12/19 05:45:47;;;;;;;11.00;5.00;;;5.20;99.90;;;;;;5134483;28;20027;-74
2022/12/19 05:48:13;;;;;;;15.10;6.78;;;5.30;99.90;;;;;;5134383;28;20058;-75
2022/12/19 05:50:38;;;;;;;8.85;4.72;;;5.30;99.90;;;;;;5134495;28;20035;-75
2022/12/19 05:53:04;;;;;;;15.70;6.80;;;5.40;99.90;;;;;;5134350;28;20039;-75
2022/12/19 05:55:30;;;;;;;7.32;3.83;;;5.40;99.90;;;;;;5116110;28;20027;-75
2022/12/19 05:57:55;;;;;;;8.77;4.85;;;5.40;99.90;;;;;;5134270;28;20043;-75
2022/12/19 06:00:21;;;;;;;11.65;5.53;;;5.50;99.90;;;;;;5134369;28;20509;-75
2022/12/19 06:02:47;;;;;;;7.10;3.72;;;5.60;99.90;;;;;;5134188;28;20032;-75
2022/12/19 06:05:13;;;;;;;9.10;4.15;;;5.60;99.90;;;;;;5134166;28;20028;-75
2022/12/19 06:07:38;;;;;;;14.80;6.05;;;5.70;99.90;;;;;;5132739;28;20024;-75
2022/12/19 06:10:05;;;;;;;14.57;6.10;;;5.70;99.90;;;;;;5134139;28;20052;-75
2022/12/19 06:12:31;;;;;;;14.23;6.72;;;5.80;99.90;;;;;;5133118;28;20037;-74
2022/12/19 06:14:56;;;;;;;9.55;4.63;;;5.80;99.90;;;;;;5132772;28;20020;-75
2022/12/19 06:17:22;;;;;;;13.00;6.53;;;5.90;99.90;;;;;;5134158;28;20398;-75
2022/12/19 06:19:48;;;;;;;6.68;4.03;;;6.00;99.90;;;;;;5133059;28;20031;-75
2022/12/19 06:22:13;;;;;;;13.52;7.18;;;6.00;99.90;;;;;;5133968;28;20034;-74
2022/12/19 06:24:39;;;;;;;8.55;4.10;;;6.10;99.90;;;;;;5132915;28;20031;-75
2022/12/19 06:27:05;;;;;;;10.40;5.10;;;6.10;99.90;;;;;;5133850;28;20055;-75
2022/12/19 06:29:30;;;;;;;11.02;4.32;;;6.20;99.90;;;;;;5133898;28;20026;-74
2022/12/19 06:31:56;;;;;;;8.57;3.97;;;6.20;99.90;;;;;;5133974;28;20028;-75
2022/12/19 06:34:22;;;;;;;10.50;4.78;;;6.30;99.90;;;;;;5133853;28;20031;-74
2022/12/19 06:36:47;;;;;;;10.25;4.85;;;6.40;99.90;;;;;;5115809;28;20024;-74
2022/12/19 06:39:14;;;;;;;8.63;5.32;;;6.50;99.90;;;;;;5132824;28;20030;-75
2022/12/19 06:44:25;;;;;;;7.78;3.75;;;6.60;99.90;;;;;;5133789;28;20035;-74
2022/12/19 06:46:52;;;;;;;6.63;3.58;;;6.60;99.90;;;;;;5132818;28;20035;-75
2022/12/19 06:49:18;;;;;;;7.28;3.47;;;6.70;99.90;;;;;;5133636;28;20482;-75
2022/12/19 06:51:44;;;;;;;7.43;4.05;;;6.80;99.90;;;;;;5133725;28;20027;-74
2022/12/19 06:54:13;;;;;;;6.53;3.20;;;6.80;99.90;;;;;;5133727;28;20082;-75
2022/12/19 06:56:41;;;;;;;8.00;4.03;;;6.90;99.90;;;;;;5132585;28;20020;-75
2022/12/19 06:59:10;;;;;;;8.13;3.85;;;7.00;99.90;;;;;;5133637;28;20019;-75
2022/12/19 07:01:58;;;;;;;7.13;3.50;;;7.00;99.90;;;;;;5132511;28;20028;-74
2022/12/19 07:04:31;;;;;;;4.10;2.35;;;7.10;99.90;;;;;;5133679;28;20027;-74
2022/12/19 07:06:57;;;;;;;5.03;2.97;;;7.10;99.90;;;;;;5132567;28;20019;-75
2022/12/19 07:09:25;;;;;;;6.57;3.05;;;7.20;99.90;;;;;;5133194;28;20103;-74
2022/12/19 07:11:51;;;;;;;6.72;3.33;;;7.30;99.90;;;;;;5133570;28;20028;-74
2022/12/19 07:14:17;;;;;;;6.60;2.70;;;7.30;99.90;;;;;;5132540;28;20024;-74
2022/12/19 07:16:44;;;;;;;8.40;4.38;;;7.40;99.90;;;;;;5133456;28;20020;-74
2022/12/19 07:19:10;;;;;;;5.70;3.40;;;7.40;99.90;;;;;;5133485;28;20563;-74
2022/12/19 07:21:35;;;;;;;6.68;2.55;;;7.50;99.90;;;;;;5115447;28;20099;-75
2022/12/19 07:24:02;;;;;;;10.90;4.03;;;7.50;99.90;;;;;;5133427;28;20039;-75
2022/12/19 07:26:28;;;;;;;10.82;3.67;;;7.50;99.90;;;;;;5132378;28;20023;-75
2022/12/19 07:28:54;;;;;;;9.88;4.75;;;7.50;99.90;;;;;;5136950;28;20035;-75
2022/12/19 07:31:20;;;;;;;5.63;3.45;;;7.50;99.90;;;;;;5136396;28;20048;-74
2022/12/19 07:33:46;;;;;;;6.22;3.60;;;7.50;99.90;;;;;;5102065;28;20054;-75
2022/12/19 07:36:11;;;;;;;6.90;3.50;;;7.60;99.90;;;;;;5136973;28;20022;-76
2022/12/19 07:38:37;;;;;;;6.72;4.00;;;7.60;99.90;;;;;;5136034;28;20051;-75
2022/12/19 07:41:03;;;;;;;7.82;3.50;;;7.60;99.90;;;;;;5136027;28;20028;-75
2022/12/19 07:43:28;;;;;;;5.85;3.35;;;7.60;99.90;;;;;;5136860;28;20062;-75
2022/12/19 07:45:55;;;;;;;5.22;2.55;;;7.60;99.90;;;;;;5136795;28;20031;-75
2022/12/19 07:48:21;;;;;;;5.82;3.17;;;7.60;99.90;;;;;;5136727;28;20020;-74
2022/12/19 07:50:47;;;;;;;6.47;3.90;;;7.70;99.90;;;;;;5136687;28;20100;-75
2022/12/19 07:53:14;;;;;;;8.65;4.70;;;7.70;99.90;;;;;;5136713;28;20016;-75
2022/12/19 07:55:40;;;;;;;3.90;2.60;;;7.70;99.80;;;;;;5135620;28;20023;-74
2022/12/19 07:58:06;;;;;;;5.05;3.13;;;7.80;99.70;;;;;;5136591;28;20034;-75
2022/12/19 08:00:31;;;;;;;8.60;4.28;;;7.80;99.50;;;;;;5136525;28;20066;-75
2022/12/19 08:02:58;;;;;;;8.48;4.45;;;7.80;99.40;;;;;;5135456;28;20035;-75
2022/12/19 08:05:23;;;;;;;5.05;2.92;;;7.80;99.30;;;;;;5136459;28;20040;-75
2022/12/19 08:07:49;;;;;;;5.45;2.95;;;7.80;99.10;;;;;;5135146;28;20099;-75
2022/12/19 08:10:15;;;;;;;9.43;3.72;;;7.80;99.00;;;;;;5136309;28;20053;-75
2022/12/19 08:12:41;;;;;;;9.18;4.03;;;7.80;98.90;;;;;;5136300;28;20024;-75
2022/12/19 08:15:07;;;;;;;6.25;2.92;;;7.80;98.90;;;;;;5136244;28;20039;-74
2022/12/19 08:17:32;;;;;;;9.88;2.95;;;7.80;98.90;;;;;;5136246;28;20023;-74
2022/12/19 08:19:59;;;;;;;8.75;4.63;;;7.80;98.80;;;;;;5136272;28;20027;-74
2022/12/19 08:22:25;;;;;;;8.85;4.05;;;7.80;98.80;;;;;;5135335;28;20053;-74
2022/12/19 08:24:50;;;;;;;4.05;3.13;;;7.80;98.80;;;;;;5136038;28;20035;-74
2022/12/19 08:27:16;;;;;;;6.63;2.95;;;7.90;98.70;;;;;;5135921;28;20051;-74
2022/12/19 08:29:42;;;;;;;6.43;3.05;;;7.90;98.60;;;;;;5136000;28;20023;-74
2022/12/19 08:32:08;;;;;;;9.10;3.67;;;7.90;98.50;;;;;;5134843;28;20023;-74
2022/12/19 08:34:33;;;;;;;5.28;2.38;;;7.90;98.40;;;;;;5135844;28;20039;-74
2022/12/19 08:36:59;;;;;;;6.82;2.83;;;7.90;98.40;;;;;;5134954;28;20027;-74
2022/12/19 08:39:25;;;;;;;5.07;2.70;;;8.00;98.30;;;;;;5135421;28;20494;-75
2022/12/19 08:41:50;;;;;;;7.25;2.65;;;7.90;98.30;;;;;;5135709;28;20083;-75
2022/12/19 08:44:16;;;;;;;7.47;4.53;;;8.00;98.20;;;;;;5135629;28;20027;-74
2022/12/19 08:46:41;;;;;;;4.35;2.75;;;8.00;98.20;;;;;;5134738;28;20035;-75
2022/12/19 08:49:07;;;;;;;5.57;3.10;;;8.00;98.30;;;;;;5135641;28;20043;-75
2022/12/19 08:51:33;;;;;;;5.88;3.05;;;8.00;98.30;;;;;;5134475;28;20030;-74
2022/12/19 08:53:58;;;;;;;6.03;3.30;;;8.00;98.50;;;;;;5134732;28;20039;-74
2022/12/19 08:56:24;;;;;;;6.15;3.33;;;8.00;98.60;;;;;;5135460;28;20019;-74
2022/12/19 08:58:50;;;;;;;7.25;3.58;;;8.00;98.60;;;;;;5135374;28;20028;-74
2022/12/19 09:01:18;;;;;;;5.07;2.22;;;8.00;98.50;;;;;;5135423;28;20049;-74
2022/12/19 09:03:46;;;;;;;10.88;3.97;;;8.00;98.30;;;;;;5134442;28;20042;-74
2022/12/19 09:06:14;;;;;;;6.75;3.80;;;8.10;98.20;;;;;;5135272;28;20020;-74
2022/12/19 09:08:40;;;;;;;9.65;4.35;;;8.10;98.20;;;;;;5134822;28;20081;-74
2022/12/19 09:11:11;;;;;;;6.25;2.97;;;8.10;98.30;;;;;;5135140;28;20020;-74
2022/12/19 09:13:38;;;;;;;11.25;3.63;;;8.10;98.40;;;;;;5135092;28;20030;-74
2022/12/19 09:16:19;;;;;;;5.75;3.17;;;8.10;98.40;;;;;;5135035;28;20079;-74
2022/12/19 09:18:50;;;;;;;5.68;2.38;;;8.10;98.30;;;;;;5135184;28;20036;-74
2022/12/19 09:21:21;;;;;;;5.50;3.25;;;8.20;98.30;;;;;;5135017;28;20030;-74
2022/12/19 09:23:52;;;;;;;5.60;2.85;;;8.20;98.20;;;;;;5133988;28;20024;-74
2022/12/19 09:26:19;;;;;;;5.03;2.72;;;8.20;98.10;;;;;;5133958;28;20020;-75
2022/12/19 09:28:46;;;;;;;7.32;3.45;;;8.20;98.00;;;;;;5134715;28;20429;-74
2022/12/19 09:31:24;;;;;;;4.97;2.42;;;8.20;97.90;;;;;;5133822;28;20024;-74
2022/12/19 09:33:50;;;;;;;4.07;2.35;;;8.30;97.70;;;;;;5134724;28;20022;-74
2022/12/19 09:36:19;;;;;;;5.90;2.92;;;8.30;97.60;;;;;;5134636;28;20024;-74
2022/12/19 09:38:45;;;;;;;6.07;3.08;;;8.30;97.50;;;;;;5134648;28;20554;-74
2022/12/19 09:41:44;;;;;;;3.80;1.98;;;8.40;97.50;;;;;;5134712;28;20028;-75
2022/12/19 09:44:45;;;;;;;5.95;2.97;;;8.40;97.50;;;;;;5134675;28;20039;-75
2022/12/19 09:47:22;;;;;;;8.15;2.75;;;8.40;97.60;;;;;;5133421;28;20026;-75
2022/12/19 09:49:48;;;;;;;5.63;2.80;;;8.40;97.80;;;;;;5133853;28;20027;-75
2022/12/19 09:52:32;;;;;;;3.13;2.10;;;8.40;97.90;;;;;;5133526;28;20031;-75
2022/12/19 09:55:02;;;;;;;7.20;3.05;;;8.40;98.10;;;;;;5133458;28;20039;-73
2022/12/19 09:57:47;;;;;;;4.10;2.05;;;8.40;98.20;;;;;;5133422;28;20482;-75
2022/12/19 10:00:18;;;;;;;5.35;3.25;;;8.40;98.30;;;;;;5134296;28;20030;-75
2022/12/19 10:03:00;;;;;;;4.97;2.90;;;8.40;98.40;;;;;;5134306;28;20058;-75
2022/12/19 10:05:47;;;;;;;6.10;3.83;;;8.40;98.40;;;;;;5133226;28;20024;-75
2022/12/19 10:08:23;;;;;;;6.60;3.13;;;8.50;98.50;;;;;;5133997;28;20036;-75
2022/12/19 10:11:08;;;;;;;5.75;2.50;;;8.50;98.50;;;;;;5134210;28;20055;-76
2022/12/19 10:13:52;;;;;;;3.58;2.33;;;8.50;98.50;;;;;;5134278;28;20084;-75
2022/12/19 10:16:46;;;;;;;5.32;2.53;;;8.50;98.40;;;;;;5134080;28;20020;-75
2022/12/19 10:19:24;;;;;;;4.88;2.67;;;8.50;98.60;;;;;;5134000;28;20031;-75
2022/12/19 10:22:03;;;;;;;4.40;2.45;;;8.60;98.10;;;;;;5134150;28;20019;-74
2022/12/19 10:24:47;;;;;;;6.40;2.75;;;8.60;97.90;;;;;;5134029;28;20083;-74
2022/12/19 10:27:25;;;;;;;6.75;3.13;;;8.60;97.70;;;;;;5132812;28;20470;-74
2022/12/19 10:30:13;;;;;;;6.05;3.05;;;8.60;97.60;;;;;;5133986;28;20015;-75
2022/12/19 10:32:45;;;;;;;6.15;3.47;;;8.70;97.50;;;;;;5133928;28;20020;-75
2022/12/19 10:35:17;;;;;;;5.05;2.72;;;8.70;97.40;;;;;;5133937;28;20112;-75
2022/12/19 10:38:04;;;;;;;6.18;2.35;;;8.70;97.10;;;;;;5133920;28;20081;-75
2022/12/19 10:40:33;;;;;;;4.95;2.47;;;8.70;97.00;;;;;;5134017;28;20095;-73
2022/12/19 10:43:09;;;;;;;8.05;2.55;;;8.80;96.70;;;;;;5132806;28;20050;-73
2022/12/19 10:45:43;;;;;;;4.32;2.58;;;8.80;96.60;;;;;;5132782;28;20019;-73
2022/12/19 10:48:16;;;;;;;5.13;2.30;;;8.90;96.50;;;;;;5132861;28;20020;-73
2022/12/19 10:50:42;;;;;;;5.72;3.00;;;8.90;96.10;;;;;;5133767;28;20071;-73
2022/12/19 10:53:10;;;;;;;6.07;2.92;;;8.90;96.00;;;;;;5132888;28;20024;-74
2022/12/19 10:55:41;;;;;;;4.03;2.47;;;8.90;95.80;;;;;;5133693;28;20055;-73
2022/12/19 10:58:35;;;;;;;7.13;2.90;;;9.00;95.80;;;;;;5133793;28;20052;-74
2022/12/19 11:01:33;;;;;;;5.38;2.90;;;9.00;95.90;;;;;;5126201;28;20047;-74
2022/12/19 11:04:14;;;;;;;4.43;2.35;;;9.00;95.90;;;;;;5137675;28;20079;-74
2022/12/19 11:06:45;;;;;;;7.75;2.85;;;9.00;95.80;;;;;;5136637;28;20374;-73
2022/12/19 11:09:29;;;;;;;4.53;2.40;;;9.00;96.00;;;;;;5137209;27;20108;-74
2022/12/19 11:12:13;;;;;;;4.63;2.55;;;9.00;96.00;;;;;;5137611;28;20035;-73
2022/12/19 11:15:03;;;;;;;6.53;3.25;;;9.00;96.10;;;;;;5137599;28;20027;-74
2022/12/19 11:17:32;;;;;;;4.65;2.30;;;9.00;96.30;;;;;;5137412;28;20036;-74
2022/12/19 11:19:57;;;;;;;5.90;3.08;;;9.00;96.40;;;;;;5137280;28;20027;-74
2022/12/19 11:22:26;;;;;;;5.78;2.85;;;9.00;96.50;;;;;;5136254;28;20027;-74
2022/12/19 11:24:54;;;;;;;6.00;2.60;;;9.00;96.40;;;;;;5137411;28;20024;-74
2022/12/19 11:27:31;;;;;;;4.55;2.83;;;9.10;96.40;;;;;;5137315;28;20024;-74
2022/12/19 11:29:58;;;;;;;5.75;2.92;;;9.10;96.60;;;;;;5137133;28;20022;-73
2022/12/19 11:32:34;;;;;;;3.40;2.42;;;9.10;96.70;;;;;;5137152;27;20016;-74
2022/12/19 11:35:02;;;;;;;5.07;2.63;;;9.10;96.70;;;;;;5136022;28;20092;-76
2022/12/19 11:37:47;;;;;;;3.97;2.30;;;9.10;96.70;;;;;;5137011;28;20027;-73
2022/12/19 11:40:40;;;;;;;3.85;2.30;;;9.10;96.60;;;;;;5135827;28;20034;-73
2022/12/19 11:43:14;;;;;;;4.28;2.00;;;9.10;96.60;;;;;;5136895;28;20032;-73
2022/12/19 11:45:47;;;;;;;3.25;1.80;;;9.20;96.30;;;;;;5136899;28;20435;-73
2022/12/19 11:48:20;;;;;;;4.07;2.28;;;9.20;96.20;;;;;;5136715;28;20015;-73
2022/12/19 11:51:16;;;;;;;4.63;2.25;;;9.20;96.10;;;;;;5135760;28;20019;-73
2022/12/19 11:54:00;;;;;;;3.70;2.00;;;9.20;95.80;;;;;;5136702;28;20023;-73
2022/12/19 11:56:28;;;;;;;5.30;2.38;;;9.30;95.70;;;;;;5136608;28;20027;-73
2022/12/19 11:59:01;;;;;;;4.97;2.25;;;9.30;95.50;;;;;;5136506;28;20031;-73
2022/12/19 12:01:41;;;;;;;4.60;2.55;;;9.30;95.40;;;;;;5136707;28;20027;-73
2022/12/19 12:04:25;;;;;;;5.43;2.78;;;9.30;95.20;;;;;;5136509;28;20023;-73
2022/12/19 12:06:53;;;;;;;4.53;2.78;;;9.40;95.10;;;;;;5136302;28;20024;-73
2022/12/19 12:09:46;;;;;;;4.35;2.17;;;9.40;94.80;;;;;;5135972;27;20055;-73
2022/12/19 12:12:25;;;;;;;5.55;2.92;;;9.40;94.50;;;;;;5135084;28;20043;-73
2022/12/19 12:15:16;;;;;;;5.63;3.15;;;9.50;94.50;;;;;;5136192;28;20030;-73
2022/12/19 12:18:03;;;;;;;4.45;2.60;;;9.50;94.40;;;;;;5136232;28;20087;-74
2022/12/19 12:20:44;;;;;;;5.20;2.25;;;9.50;94.10;;;;;;5135161;28;20024;-74
2022/12/19 12:23:24;;;;;;;5.15;2.10;;;9.60;94.00;;;;;;5136244;28;20027;-74
2022/12/19 12:26:09;;;;;;;6.63;2.63;;;9.60;93.80;;;;;;5135343;28;20028;-73
2022/12/19 12:29:02;;;;;;;4.95;2.28;;;9.70;93.70;;;;;;5134842;28;20053;-74
2022/12/19 12:31:59;;;;;;;6.40;3.05;;;9.70;93.40;;;;;;5136018;28;20012;-74
2022/12/19 12:34:34;;;;;;;4.05;2.17;;;9.70;93.50;;;;;;5135811;28;20031;-74
2022/12/19 12:37:24;;;;;;;4.75;2.42;;;9.70;93.40;;;;;;5135908;27;20020;-74
2022/12/19 12:40:15;;;;;;;3.20;2.15;;;9.70;93.30;;;;;;5134764;28;20099;-74
2022/12/19 12:43:11;;;;;;;6.10;2.55;;;9.80;93.10;;;;;;5135919;28;20027;-74
2022/12/19 12:45:43;;;;;;;3.97;2.20;;;9.80;93.00;;;;;;5134507;28;20035;-74
2022/12/19 12:48:22;;;;;;;;;;;9.80;92.90;;;;;;5135920;28;20027;-75
2022/12/19 12:50:49;;;;;;;5.47;3.05;;;9.80;92.80;;;;;;5135632;28;19903;-74
2022/12/19 12:53:21;;;;;;;2.22;1.48;;;9.90;93.00;;;;;;5135545;28;20040;-74
2022/12/19 12:55:48;;;;;;;4.65;2.22;;;9.90;92.80;;;;;;5135500;28;20082;-74
2022/12/19 12:58:52;;;;;;;5.00;2.40;;;9.90;92.80;;;;;;5134437;28;20038;-74
2022/12/19 13:01:27;;;;;;;4.13;2.00;;;10.00;92.90;;;;;;5103710;28;20058;-75
2022/12/19 13:04:04;;;;;;;6.05;3.00;;;10.00;92.50;;;;;;5134225;28;20064;-74
2022/12/19 13:06:34;;;;;;;4.47;2.72;;;10.00;92.60;;;;;;5134237;28;20031;-75
2022/12/19 13:09:15;;;;;;;6.30;2.35;;;10.00;92.50;;;;;;5134752;28;20386;-75
2022/12/19 13:14:47;;;;;;;5.53;3.03;;;10.00;92.30;;;;;;5135358;28;20043;-75
2022/12/19 13:17:43;;;;;;;7.18;3.08;;;10.00;92.40;;;;;;5135070;28;20020;-75
2022/12/19 13:20:09;;;;;;;5.88;3.58;;;10.00;92.30;;;;;;5133909;28;20015;-74
2022/12/19 13:22:34;;;;;;;7.22;3.00;;;10.00;92.30;;;;;;5134953;28;20574;-74